sensor_id;sensor_type;location;lat;lon;timestamp;P1;durP1;ratioP1;P2;durP2;ratioP2
70825;SDS011;58446;41.490;22.098;2022-12-18T00:00:57;58.47;;;33.35;;
70825;SDS011;58446;41.490;22.098;2022-12-18T00:03:23;52.77;;;32.47;;
70825;SDS011;58446;41.490;22.098;2022-12-18T00:05:52;48.87;;;30.47;;
70825;SDS011;58446;41.490;22.098;2022-12-18T00:08:18;48.95;;;30.05;;
70825;SDS011;58446;41.490;22.098;2022-12-18T00:10:44;51.25;;;32.65;;
70825;SDS011;58446;41.490;22.098;2022-12-18T00:13:12;57.72;;;36.00;;
70825;SDS011;58446;41.490;22.098;2022-12-18T00:15:38;58.45;;;35.40;;
70825;SDS011;58446;41.490;22.098;2022-12-18T00:18:05;58.93;;;36.57;;
70825;SDS011;58446;41.490;22.098;2022-12-18T00:20:30;63.03;;;39.40;;
70825;SDS011;58446;41.490;22.098;2022-12-18T00:23:00;52.63;;;35.17;;
70825;SDS011;58446;41.490;22.098;2022-12-18T00:25:26;56.40;;;37.97;;
70825;SDS011;58446;41.490;22.098;2022-12-18T00:27:51;51.87;;;33.80;;
70825;SDS011;58446;41.490;22.098;2022-12-18T00:30:17;47.35;;;29.25;;
70825;SDS011;58446;41.490;22.098;2022-12-18T00:32:43;46.23;;;27.37;;
70825;SDS011;58446;41.490;22.098;2022-12-18T00:35:09;46.92;;;30.88;;
70825;SDS011;58446;41.490;22.098;2022-12-18T00:37:34;60.03;;;37.77;;
70825;SDS011;58446;41.490;22.098;2022-12-18T00:40:00;68.93;;;39.47;;
70825;SDS011;58446;41.490;22.098;2022-12-18T00:42:26;75.07;;;43.53;;
70825;SDS011;58446;41.490;22.098;2022-12-18T00:45:10;55.40;;;35.28;;
70825;SDS011;58446;41.490;22.098;2022-12-18T00:47:36;59.60;;;37.15;;
70825;SDS011;58446;41.490;22.098;2022-12-18T00:50:01;78.00;;;44.60;;
70825;SDS011;58446;41.490;22.098;2022-12-18T00:52:27;60.33;;;35.42;;
70825;SDS011;58446;41.490;22.098;2022-12-18T00:54:53;56.63;;;33.90;;
70825;SDS011;58446;41.490;22.098;2022-12-18T00:57:18;55.37;;;33.70;;
70825;SDS011;58446;41.490;22.098;2022-12-18T00:59:44;43.75;;;27.30;;
70825;SDS011;58446;41.490;22.098;2022-12-18T01:02:10;50.43;;;28.97;;
70825;SDS011;58446;41.490;22.098;2022-12-18T01:04:35;37.88;;;22.63;;
70825;SDS011;58446;41.490;22.098;2022-12-18T01:07:01;39.80;;;24.60;;
70825;SDS011;58446;41.490;22.098;2022-12-18T01:09:27;30.65;;;18.48;;
70825;SDS011;58446;41.490;22.098;2022-12-18T01:11:52;28.57;;;18.80;;
70825;SDS011;58446;41.490;22.098;2022-12-18T01:14:18;25.50;;;16.60;;
70825;SDS011;58446;41.490;22.098;2022-12-18T01:16:44;20.97;;;13.13;;
70825;SDS011;58446;41.490;22.098;2022-12-18T01:19:09;24.25;;;15.63;;
70825;SDS011;58446;41.490;22.098;2022-12-18T01:21:35;22.17;;;13.80;;
70825;SDS011;58446;41.490;22.098;2022-12-18T01:24:01;20.77;;;13.27;;
70825;SDS011;58446;41.490;22.098;2022-12-18T01:26:27;22.53;;;13.50;;
70825;SDS011;58446;41.490;22.098;2022-12-18T01:28:57;22.42;;;13.77;;
70825;SDS011;58446;41.490;22.098;2022-12-18T01:31:26;19.50;;;13.07;;
70825;SDS011;58446;41.490;22.098;2022-12-18T01:33:53;21.10;;;12.35;;
70825;SDS011;58446;41.490;22.098;2022-12-18T01:36:21;17.47;;;10.67;;
70825;SDS011;58446;41.490;22.098;2022-12-18T01:38:51;18.65;;;11.10;;
70825;SDS011;58446;41.490;22.098;2022-12-18T01:41:19;17.30;;;9.82;;
70825;SDS011;58446;41.490;22.098;2022-12-18T01:43:51;17.67;;;10.93;;
70825;SDS011;58446;41.490;22.098;2022-12-18T01:46:22;16.35;;;11.00;;
70825;SDS011;58446;41.490;22.098;2022-12-18T01:48:49;15.57;;;9.93;;
70825;SDS011;58446;41.490;22.098;2022-12-18T01:51:18;16.90;;;10.18;;
70825;SDS011;58446;41.490;22.098;2022-12-18T01:53:44;15.65;;;9.82;;
70825;SDS011;58446;41.490;22.098;2022-12-18T01:56:12;15.07;;;10.25;;
70825;SDS011;58446;41.490;22.098;2022-12-18T02:01:09;17.77;;;9.57;;
70825;SDS011;58446;41.490;22.098;2022-12-18T02:03:34;15.60;;;9.85;;
70825;SDS011;58446;41.490;22.098;2022-12-18T02:06:09;14.13;;;8.87;;
70825;SDS011;58446;41.490;22.098;2022-12-18T02:08:49;15.05;;;8.27;;
70825;SDS011;58446;41.490;22.098;2022-12-18T02:14:23;18.65;;;10.55;;
70825;SDS011;58446;41.490;22.098;2022-12-18T02:17:01;14.30;;;8.43;;
70825;SDS011;58446;41.490;22.098;2022-12-18T02:19:47;14.80;;;8.77;;
70825;SDS011;58446;41.490;22.098;2022-12-18T02:25:33;13.80;;;8.73;;
70825;SDS011;58446;41.490;22.098;2022-12-18T02:28:16;12.73;;;7.82;;
70825;SDS011;58446;41.490;22.098;2022-12-18T02:30:46;13.15;;;8.32;;
70825;SDS011;58446;41.490;22.098;2022-12-18T02:33:14;11.93;;;7.40;;
70825;SDS011;58446;41.490;22.098;2022-12-18T02:35:40;11.57;;;7.43;;
70825;SDS011;58446;41.490;22.098;2022-12-18T02:38:08;11.88;;;7.72;;
70825;SDS011;58446;41.490;22.098;2022-12-18T02:40:34;12.10;;;7.40;;
70825;SDS011;58446;41.490;22.098;2022-12-18T02:43:03;10.80;;;7.35;;
70825;SDS011;58446;41.490;22.098;2022-12-18T02:45:46;11.27;;;7.20;;
70825;SDS011;58446;41.490;22.098;2022-12-18T02:48:19;11.82;;;7.30;;
70825;SDS011;58446;41.490;22.098;2022-12-18T02:50:52;11.50;;;7.82;;
70825;SDS011;58446;41.490;22.098;2022-12-18T02:53:51;14.18;;;7.93;;
70825;SDS011;58446;41.490;22.098;2022-12-18T02:56:26;12.40;;;8.02;;
70825;SDS011;58446;41.490;22.098;2022-12-18T02:59:00;12.63;;;7.53;;
70825;SDS011;58446;41.490;22.098;2022-12-18T03:04:58;10.10;;;7.13;;
70825;SDS011;58446;41.490;22.098;2022-12-18T03:07:09;11.98;;;7.97;;
70825;SDS011;58446;41.490;22.098;2022-12-18T03:09:42;12.40;;;7.55;;
70825;SDS011;58446;41.490;22.098;2022-12-18T03:14:53;10.88;;;7.60;;
70825;SDS011;58446;41.490;22.098;2022-12-18T03:17:25;12.98;;;7.97;;
70825;SDS011;58446;41.490;22.098;2022-12-18T03:19:52;13.85;;;7.57;;
70825;SDS011;58446;41.490;22.098;2022-12-18T03:22:21;12.82;;;8.88;;
70825;SDS011;58446;41.490;22.098;2022-12-18T03:24:49;11.33;;;7.43;;
70825;SDS011;58446;41.490;22.098;2022-12-18T03:27:15;12.88;;;8.25;;
70825;SDS011;58446;41.490;22.098;2022-12-18T03:29:46;13.80;;;8.82;;
70825;SDS011;58446;41.490;22.098;2022-12-18T03:33:00;13.65;;;8.85;;
70825;SDS011;58446;41.490;22.098;2022-12-18T03:35:11;13.85;;;9.13;;
70825;SDS011;58446;41.490;22.098;2022-12-18T03:37:43;14.23;;;8.50;;
70825;SDS011;58446;41.490;22.098;2022-12-18T03:40:09;14.82;;;8.85;;
70825;SDS011;58446;41.490;22.098;2022-12-18T03:42:38;14.13;;;8.13;;
70825;SDS011;58446;41.490;22.098;2022-12-18T03:45:26;13.67;;;8.33;;
70825;SDS011;58446;41.490;22.098;2022-12-18T03:48:00;16.15;;;8.35;;
70825;SDS011;58446;41.490;22.098;2022-12-18T03:50:43;14.50;;;8.90;;
70825;SDS011;58446;41.490;22.098;2022-12-18T03:55:44;12.48;;;7.55;;
70825;SDS011;58446;41.490;22.098;2022-12-18T03:58:12;12.73;;;8.33;;
70825;SDS011;58446;41.490;22.098;2022-12-18T04:00:40;11.65;;;7.55;;
70825;SDS011;58446;41.490;22.098;2022-12-18T04:03:07;12.10;;;8.00;;
70825;SDS011;58446;41.490;22.098;2022-12-18T04:05:33;11.68;;;7.03;;
70825;SDS011;58446;41.490;22.098;2022-12-18T04:08:02;13.32;;;7.78;;
70825;SDS011;58446;41.490;22.098;2022-12-18T04:10:28;10.83;;;7.33;;
70825;SDS011;58446;41.490;22.098;2022-12-18T04:12:57;10.60;;;7.30;;
70825;SDS011;58446;41.490;22.098;2022-12-18T04:15:23;10.77;;;7.63;;
70825;SDS011;58446;41.490;22.098;2022-12-18T04:17:49;11.88;;;7.28;;
70825;SDS011;58446;41.490;22.098;2022-12-18T04:20:15;10.50;;;7.60;;
70825;SDS011;58446;41.490;22.098;2022-12-18T04:22:41;10.93;;;7.28;;
70825;SDS011;58446;41.490;22.098;2022-12-18T04:25:07;10.82;;;7.30;;
70825;SDS011;58446;41.490;22.098;2022-12-18T04:27:33;9.90;;;7.03;;
70825;SDS011;58446;41.490;22.098;2022-12-18T04:29:58;12.05;;;7.63;;
70825;SDS011;58446;41.490;22.098;2022-12-18T04:32:24;12.10;;;7.50;;
70825;SDS011;58446;41.490;22.098;2022-12-18T04:34:50;24.42;;;14.43;;
70825;SDS011;58446;41.490;22.098;2022-12-18T04:37:15;44.30;;;24.40;;
70825;SDS011;58446;41.490;22.098;2022-12-18T04:39:41;22.00;;;13.65;;
70825;SDS011;58446;41.490;22.098;2022-12-18T04:42:07;14.17;;;10.23;;
70825;SDS011;58446;41.490;22.098;2022-12-18T04:44:32;17.15;;;13.10;;
70825;SDS011;58446;41.490;22.098;2022-12-18T04:46:58;15.23;;;12.53;;
70825;SDS011;58446;41.490;22.098;2022-12-18T04:49:23;14.97;;;12.60;;
70825;SDS011;58446;41.490;22.098;2022-12-18T04:51:49;15.77;;;12.35;;
70825;SDS011;58446;41.490;22.098;2022-12-18T04:54:15;16.03;;;11.27;;
70825;SDS011;58446;41.490;22.098;2022-12-18T04:56:40;13.60;;;8.97;;
70825;SDS011;58446;41.490;22.098;2022-12-18T04:59:06;12.97;;;10.83;;
70825;SDS011;58446;41.490;22.098;2022-12-18T05:01:32;14.07;;;10.88;;
70825;SDS011;58446;41.490;22.098;2022-12-18T05:04:01;13.73;;;10.10;;
70825;SDS011;58446;41.490;22.098;2022-12-18T05:06:27;13.43;;;9.20;;
70825;SDS011;58446;41.490;22.098;2022-12-18T05:08:52;12.32;;;9.75;;
70825;SDS011;58446;41.490;22.098;2022-12-18T05:11:18;17.37;;;11.40;;
70825;SDS011;58446;41.490;22.098;2022-12-18T05:13:44;14.00;;;10.60;;
70825;SDS011;58446;41.490;22.098;2022-12-18T05:16:10;12.23;;;8.90;;
70825;SDS011;58446;41.490;22.098;2022-12-18T05:18:37;15.37;;;10.07;;
70825;SDS011;58446;41.490;22.098;2022-12-18T05:21:03;10.32;;;7.60;;
70825;SDS011;58446;41.490;22.098;2022-12-18T05:23:29;14.95;;;9.30;;
70825;SDS011;58446;41.490;22.098;2022-12-18T05:25:58;10.27;;;7.10;;
70825;SDS011;58446;41.490;22.098;2022-12-18T05:28:26;13.07;;;9.68;;
70825;SDS011;58446;41.490;22.098;2022-12-18T05:30:54;14.95;;;10.70;;
70825;SDS011;58446;41.490;22.098;2022-12-18T05:33:23;11.45;;;7.75;;
70825;SDS011;58446;41.490;22.098;2022-12-18T05:35:53;13.23;;;9.02;;
70825;SDS011;58446;41.490;22.098;2022-12-18T05:38:20;13.93;;;9.00;;
70825;SDS011;58446;41.490;22.098;2022-12-18T05:40:47;12.07;;;8.80;;
70825;SDS011;58446;41.490;22.098;2022-12-18T05:43:14;12.07;;;9.02;;
70825;SDS011;58446;41.490;22.098;2022-12-18T05:45:40;13.88;;;9.00;;
70825;SDS011;58446;41.490;22.098;2022-12-18T05:48:06;12.57;;;9.52;;
70825;SDS011;58446;41.490;22.098;2022-12-18T05:50:35;14.13;;;9.83;;
70825;SDS011;58446;41.490;22.098;2022-12-18T05:53:02;15.55;;;10.98;;
70825;SDS011;58446;41.490;22.098;2022-12-18T05:55:29;14.48;;;9.85;;
70825;SDS011;58446;41.490;22.098;2022-12-18T05:57:59;17.10;;;11.38;;
70825;SDS011;58446;41.490;22.098;2022-12-18T06:00:24;15.45;;;10.48;;
70825;SDS011;58446;41.490;22.098;2022-12-18T06:02:50;15.07;;;11.17;;
70825;SDS011;58446;41.490;22.098;2022-12-18T06:05:16;15.00;;;10.27;;
70825;SDS011;58446;41.490;22.098;2022-12-18T06:07:41;19.13;;;11.18;;
70825;SDS011;58446;41.490;22.098;2022-12-18T06:10:07;16.00;;;9.47;;
70825;SDS011;58446;41.490;22.098;2022-12-18T06:12:33;15.93;;;9.50;;
70825;SDS011;58446;41.490;22.098;2022-12-18T06:14:59;14.83;;;9.17;;
70825;SDS011;58446;41.490;22.098;2022-12-18T06:17:29;13.60;;;9.65;;
70825;SDS011;58446;41.490;22.098;2022-12-18T06:19:55;18.08;;;9.30;;
70825;SDS011;58446;41.490;22.098;2022-12-18T06:22:21;22.53;;;12.40;;
70825;SDS011;58446;41.490;22.098;2022-12-18T06:24:47;33.03;;;16.25;;
70825;SDS011;58446;41.490;22.098;2022-12-18T06:27:12;27.83;;;14.85;;
70825;SDS011;58446;41.490;22.098;2022-12-18T06:29:38;15.93;;;10.23;;
70825;SDS011;58446;41.490;22.098;2022-12-18T06:32:04;15.57;;;9.10;;
70825;SDS011;58446;41.490;22.098;2022-12-18T06:34:30;19.63;;;12.20;;
70825;SDS011;58446;41.490;22.098;2022-12-18T06:36:55;16.77;;;11.30;;
70825;SDS011;58446;41.490;22.098;2022-12-18T06:39:21;17.00;;;10.97;;
70825;SDS011;58446;41.490;22.098;2022-12-18T06:41:46;34.10;;;18.50;;
70825;SDS011;58446;41.490;22.098;2022-12-18T06:44:12;16.50;;;11.60;;
70825;SDS011;58446;41.490;22.098;2022-12-18T06:46:38;14.10;;;9.48;;
70825;SDS011;58446;41.490;22.098;2022-12-18T06:49:03;15.33;;;10.40;;
70825;SDS011;58446;41.490;22.098;2022-12-18T06:51:29;16.13;;;10.47;;
70825;SDS011;58446;41.490;22.098;2022-12-18T06:53:55;24.53;;;13.67;;
70825;SDS011;58446;41.490;22.098;2022-12-18T06:56:20;37.10;;;19.38;;
70825;SDS011;58446;41.490;22.098;2022-12-18T06:58:46;21.73;;;13.30;;
70825;SDS011;58446;41.490;22.098;2022-12-18T07:01:15;29.03;;;18.60;;
70825;SDS011;58446;41.490;22.098;2022-12-18T07:03:41;20.63;;;14.60;;
70825;SDS011;58446;41.490;22.098;2022-12-18T07:06:13;15.82;;;11.88;;
70825;SDS011;58446;41.490;22.098;2022-12-18T07:08:42;14.37;;;9.57;;
70825;SDS011;58446;41.490;22.098;2022-12-18T07:11:08;15.98;;;11.25;;
70825;SDS011;58446;41.490;22.098;2022-12-18T07:13:33;21.10;;;14.27;;
70825;SDS011;58446;41.490;22.098;2022-12-18T07:16:03;18.50;;;13.10;;
70825;SDS011;58446;41.490;22.098;2022-12-18T07:18:33;16.35;;;11.38;;
70825;SDS011;58446;41.490;22.098;2022-12-18T07:21:02;14.20;;;9.97;;
70825;SDS011;58446;41.490;22.098;2022-12-18T07:23:31;14.07;;;8.90;;
70825;SDS011;58446;41.490;22.098;2022-12-18T07:26:03;15.10;;;9.80;;
70825;SDS011;58446;41.490;22.098;2022-12-18T07:28:30;13.27;;;9.30;;
70825;SDS011;58446;41.490;22.098;2022-12-18T07:30:56;14.60;;;10.37;;
70825;SDS011;58446;41.490;22.098;2022-12-18T07:33:21;18.23;;;12.85;;
70825;SDS011;58446;41.490;22.098;2022-12-18T07:35:47;25.70;;;17.17;;
70825;SDS011;58446;41.490;22.098;2022-12-18T07:38:13;27.05;;;17.05;;
70825;SDS011;58446;41.490;22.098;2022-12-18T07:40:38;17.87;;;12.20;;
70825;SDS011;58446;41.490;22.098;2022-12-18T07:43:04;20.13;;;13.13;;
70825;SDS011;58446;41.490;22.098;2022-12-18T07:45:30;15.17;;;11.17;;
70825;SDS011;58446;41.490;22.098;2022-12-18T07:47:55;16.05;;;13.00;;
70825;SDS011;58446;41.490;22.098;2022-12-18T07:50:21;14.83;;;11.63;;
70825;SDS011;58446;41.490;22.098;2022-12-18T07:52:47;14.13;;;10.13;;
70825;SDS011;58446;41.490;22.098;2022-12-18T07:55:12;14.77;;;9.80;;
70825;SDS011;58446;41.490;22.098;2022-12-18T07:57:38;15.30;;;11.07;;
70825;SDS011;58446;41.490;22.098;2022-12-18T08:00:04;18.43;;;12.17;;
70825;SDS011;58446;41.490;22.098;2022-12-18T08:02:30;16.55;;;10.90;;
70825;SDS011;58446;41.490;22.098;2022-12-18T08:04:56;15.02;;;10.85;;
70825;SDS011;58446;41.490;22.098;2022-12-18T08:07:23;12.52;;;9.23;;
70825;SDS011;58446;41.490;22.098;2022-12-18T08:09:49;12.73;;;9.77;;
70825;SDS011;58446;41.490;22.098;2022-12-18T08:12:14;15.98;;;11.68;;
70825;SDS011;58446;41.490;22.098;2022-12-18T08:14:40;17.33;;;12.67;;
70825;SDS011;58446;41.490;22.098;2022-12-18T08:17:05;16.60;;;11.10;;
70825;SDS011;58446;41.490;22.098;2022-12-18T08:19:31;14.37;;;11.10;;
70825;SDS011;58446;41.490;22.098;2022-12-18T08:21:57;16.43;;;11.97;;
70825;SDS011;58446;41.490;22.098;2022-12-18T08:24:22;16.77;;;12.13;;
70825;SDS011;58446;41.490;22.098;2022-12-18T08:26:48;14.70;;;10.90;;
70825;SDS011;58446;41.490;22.098;2022-12-18T08:29:13;18.08;;;12.73;;
70825;SDS011;58446;41.490;22.098;2022-12-18T08:31:39;18.10;;;12.53;;
70825;SDS011;58446;41.490;22.098;2022-12-18T08:34:05;24.45;;;16.38;;
70825;SDS011;58446;41.490;22.098;2022-12-18T08:36:30;19.73;;;13.40;;
70825;SDS011;58446;41.490;22.098;2022-12-18T08:38:56;18.10;;;13.18;;
70825;SDS011;58446;41.490;22.098;2022-12-18T08:41:22;18.13;;;13.80;;
70825;SDS011;58446;41.490;22.098;2022-12-18T08:43:48;20.73;;;13.15;;
70825;SDS011;58446;41.490;22.098;2022-12-18T08:46:37;17.88;;;12.68;;
70825;SDS011;58446;41.490;22.098;2022-12-18T08:49:04;18.73;;;13.68;;
70825;SDS011;58446;41.490;22.098;2022-12-18T08:51:31;19.77;;;12.18;;
70825;SDS011;58446;41.490;22.098;2022-12-18T08:53:58;18.47;;;14.47;;
70825;SDS011;58446;41.490;22.098;2022-12-18T08:56:24;21.30;;;14.45;;
70825;SDS011;58446;41.490;22.098;2022-12-18T08:58:53;23.47;;;15.37;;
70825;SDS011;58446;41.490;22.098;2022-12-18T09:01:20;24.48;;;14.85;;
70825;SDS011;58446;41.490;22.098;2022-12-18T09:03:46;26.58;;;18.20;;
70825;SDS011;58446;41.490;22.098;2022-12-18T09:06:16;22.67;;;15.05;;
70825;SDS011;58446;41.490;22.098;2022-12-18T09:08:43;31.55;;;20.98;;
70825;SDS011;58446;41.490;22.098;2022-12-18T09:11:19;22.53;;;15.27;;
70825;SDS011;58446;41.490;22.098;2022-12-18T09:13:46;21.52;;;14.93;;
70825;SDS011;58446;41.490;22.098;2022-12-18T09:16:12;21.80;;;14.60;;
70825;SDS011;58446;41.490;22.098;2022-12-18T09:18:38;21.00;;;13.30;;
70825;SDS011;58446;41.490;22.098;2022-12-18T09:21:07;33.45;;;19.95;;
70825;SDS011;58446;41.490;22.098;2022-12-18T09:23:38;29.42;;;18.85;;
70825;SDS011;58446;41.490;22.098;2022-12-18T09:26:04;35.73;;;20.20;;
70825;SDS011;58446;41.490;22.098;2022-12-18T09:28:30;36.30;;;22.08;;
70825;SDS011;58446;41.490;22.098;2022-12-18T09:30:56;35.92;;;22.70;;
70825;SDS011;58446;41.490;22.098;2022-12-18T09:33:22;43.87;;;27.80;;
70825;SDS011;58446;41.490;22.098;2022-12-18T09:35:47;40.40;;;23.85;;
70825;SDS011;58446;41.490;22.098;2022-12-18T09:38:14;31.70;;;20.30;;
70825;SDS011;58446;41.490;22.098;2022-12-18T09:40:44;28.73;;;20.20;;
70825;SDS011;58446;41.490;22.098;2022-12-18T09:45:46;30.30;;;20.90;;
70825;SDS011;58446;41.490;22.098;2022-12-18T09:48:17;20.17;;;14.70;;
70825;SDS011;58446;41.490;22.098;2022-12-18T09:50:48;28.65;;;18.58;;
70825;SDS011;58446;41.490;22.098;2022-12-18T09:53:18;30.85;;;17.63;;
70825;SDS011;58446;41.490;22.098;2022-12-18T09:55:48;26.63;;;16.38;;
70825;SDS011;58446;41.490;22.098;2022-12-18T09:58:20;25.38;;;16.42;;
70825;SDS011;58446;41.490;22.098;2022-12-18T10:00:55;20.50;;;15.43;;
70825;SDS011;58446;41.490;22.098;2022-12-18T10:03:21;27.63;;;17.10;;
70825;SDS011;58446;41.490;22.098;2022-12-18T10:08:59;22.83;;;15.23;;
70825;SDS011;58446;41.490;22.098;2022-12-18T10:14:10;22.73;;;13.60;;
70825;SDS011;58446;41.490;22.098;2022-12-18T10:17:10;24.20;;;15.95;;
70825;SDS011;58446;41.490;22.098;2022-12-18T10:25:53;21.30;;;12.93;;
70825;SDS011;58446;41.490;22.098;2022-12-18T10:28:21;21.60;;;13.43;;
70825;SDS011;58446;41.490;22.098;2022-12-18T10:30:49;29.02;;;16.83;;
70825;SDS011;58446;41.490;22.098;2022-12-18T10:33:17;40.25;;;21.30;;
70825;SDS011;58446;41.490;22.098;2022-12-18T10:35:49;28.02;;;15.43;;
70825;SDS011;58446;41.490;22.098;2022-12-18T10:43:26;28.80;;;17.65;;
70825;SDS011;58446;41.490;22.098;2022-12-18T10:45:59;33.60;;;19.05;;
70825;SDS011;58446;41.490;22.098;2022-12-18T10:48:28;30.10;;;17.58;;
70825;SDS011;58446;41.490;22.098;2022-12-18T10:50:55;25.90;;;15.33;;
70825;SDS011;58446;41.490;22.098;2022-12-18T10:53:23;22.85;;;13.77;;
70825;SDS011;58446;41.490;22.098;2022-12-18T10:55:54;23.80;;;15.30;;
70825;SDS011;58446;41.490;22.098;2022-12-18T10:58:29;20.83;;;13.55;;
70825;SDS011;58446;41.490;22.098;2022-12-18T11:01:04;61.35;;;30.00;;
70825;SDS011;58446;41.490;22.098;2022-12-18T11:03:46;38.50;;;19.87;;
70825;SDS011;58446;41.490;22.098;2022-12-18T11:06:26;29.45;;;19.40;;
70825;SDS011;58446;41.490;22.098;2022-12-18T11:09:02;26.98;;;15.68;;
70825;SDS011;58446;41.490;22.098;2022-12-18T11:11:48;29.27;;;17.38;;
70825;SDS011;58446;41.490;22.098;2022-12-18T11:14:41;25.58;;;16.50;;
70825;SDS011;58446;41.490;22.098;2022-12-18T11:17:19;30.80;;;18.50;;
70825;SDS011;58446;41.490;22.098;2022-12-18T11:19:56;27.50;;;17.13;;
70825;SDS011;58446;41.490;22.098;2022-12-18T11:22:25;26.48;;;16.90;;
70825;SDS011;58446;41.490;22.098;2022-12-18T11:25:04;26.02;;;16.30;;
70825;SDS011;58446;41.490;22.098;2022-12-18T11:27:35;24.65;;;17.33;;
70825;SDS011;58446;41.490;22.098;2022-12-18T11:30:13;20.40;;;14.10;;
70825;SDS011;58446;41.490;22.098;2022-12-18T11:32:47;25.73;;;16.02;;
70825;SDS011;58446;41.490;22.098;2022-12-18T11:35:19;21.85;;;13.40;;
70825;SDS011;58446;41.490;22.098;2022-12-18T11:38:02;22.45;;;14.65;;
70825;SDS011;58446;41.490;22.098;2022-12-18T11:40:51;26.17;;;13.18;;
70825;SDS011;58446;41.490;22.098;2022-12-18T11:43:25;22.60;;;14.80;;
70825;SDS011;58446;41.490;22.098;2022-12-18T11:45:59;22.35;;;15.07;;
70825;SDS011;58446;41.490;22.098;2022-12-18T11:48:43;29.58;;;18.20;;
70825;SDS011;58446;41.490;22.098;2022-12-18T11:51:16;25.50;;;16.13;;
70825;SDS011;58446;41.490;22.098;2022-12-18T11:53:48;23.02;;;14.45;;
70825;SDS011;58446;41.490;22.098;2022-12-18T11:59:07;25.25;;;17.80;;
70825;SDS011;58446;41.490;22.098;2022-12-18T12:02:01;23.63;;;14.80;;
70825;SDS011;58446;41.490;22.098;2022-12-18T12:09:43;23.53;;;13.77;;
70825;SDS011;58446;41.490;22.098;2022-12-18T12:15:18;19.52;;;12.45;;
70825;SDS011;58446;41.490;22.098;2022-12-18T12:18:34;21.58;;;12.00;;
70825;SDS011;58446;41.490;22.098;2022-12-18T12:20:49;20.63;;;13.07;;
70825;SDS011;58446;41.490;22.098;2022-12-18T12:23:34;32.17;;;18.60;;
70825;SDS011;58446;41.490;22.098;2022-12-18T12:29:10;26.15;;;15.60;;
70825;SDS011;58446;41.490;22.098;2022-12-18T12:35:08;24.35;;;15.10;;
70825;SDS011;58446;41.490;22.098;2022-12-18T12:40:18;25.73;;;14.40;;
70825;SDS011;58446;41.490;22.098;2022-12-18T12:42:58;29.35;;;15.52;;
70825;SDS011;58446;41.490;22.098;2022-12-18T12:48:20;27.98;;;18.00;;
70825;SDS011;58446;41.490;22.098;2022-12-18T12:51:06;29.40;;;17.57;;
70825;SDS011;58446;41.490;22.098;2022-12-18T12:53:38;31.58;;;19.02;;
70825;SDS011;58446;41.490;22.098;2022-12-18T12:56:04;24.13;;;14.85;;
70825;SDS011;58446;41.490;22.098;2022-12-18T12:58:34;22.90;;;13.27;;
70825;SDS011;58446;41.490;22.098;2022-12-18T13:01:13;21.88;;;13.40;;
70825;SDS011;58446;41.490;22.098;2022-12-18T13:20:38;27.67;;;18.08;;
70825;SDS011;58446;41.490;22.098;2022-12-18T13:23:19;43.58;;;22.25;;
70825;SDS011;58446;41.490;22.098;2022-12-18T13:25:52;31.83;;;18.52;;
70825;SDS011;58446;41.490;22.098;2022-12-18T13:31:10;27.13;;;14.50;;
70825;SDS011;58446;41.490;22.098;2022-12-18T13:33:37;53.72;;;18.20;;
70825;SDS011;58446;41.490;22.098;2022-12-18T13:39:09;32.65;;;13.35;;
70825;SDS011;58446;41.490;22.098;2022-12-18T13:41:35;31.60;;;15.43;;
70825;SDS011;58446;41.490;22.098;2022-12-18T13:46:54;31.63;;;14.77;;
70825;SDS011;58446;41.490;22.098;2022-12-18T13:52:00;38.93;;;16.73;;
70825;SDS011;58446;41.490;22.098;2022-12-18T13:54:32;28.23;;;17.80;;
70825;SDS011;58446;41.490;22.098;2022-12-18T13:57:05;24.60;;;16.02;;
70825;SDS011;58446;41.490;22.098;2022-12-18T13:59:50;26.42;;;16.02;;
70825;SDS011;58446;41.490;22.098;2022-12-18T14:02:17;26.17;;;13.63;;
70825;SDS011;58446;41.490;22.098;2022-12-18T14:04:47;25.17;;;15.27;;
70825;SDS011;58446;41.490;22.098;2022-12-18T14:07:14;21.85;;;14.35;;
70825;SDS011;58446;41.490;22.098;2022-12-18T14:09:45;23.27;;;14.35;;
70825;SDS011;58446;41.490;22.098;2022-12-18T14:12:24;22.15;;;11.32;;
70825;SDS011;58446;41.490;22.098;2022-12-18T14:20:25;21.20;;;11.85;;
70825;SDS011;58446;41.490;22.098;2022-12-18T14:22:52;25.92;;;14.40;;
70825;SDS011;58446;41.490;22.098;2022-12-18T14:25:20;22.15;;;11.50;;
70825;SDS011;58446;41.490;22.098;2022-12-18T14:30:36;22.20;;;11.47;;
70825;SDS011;58446;41.490;22.098;2022-12-18T14:36:00;33.28;;;19.38;;
70825;SDS011;58446;41.490;22.098;2022-12-18T14:38:35;23.40;;;13.90;;
70825;SDS011;58446;41.490;22.098;2022-12-18T14:41:12;32.75;;;19.77;;
70825;SDS011;58446;41.490;22.098;2022-12-18T14:43:40;26.10;;;15.73;;
70825;SDS011;58446;41.490;22.098;2022-12-18T14:49:25;27.55;;;16.38;;
70825;SDS011;58446;41.490;22.098;2022-12-18T14:51:55;52.38;;;25.45;;
70825;SDS011;58446;41.490;22.098;2022-12-18T14:54:25;38.05;;;22.67;;
70825;SDS011;58446;41.490;22.098;2022-12-18T14:59:27;30.52;;;17.80;;
70825;SDS011;58446;41.490;22.098;2022-12-18T15:04:28;34.45;;;18.95;;
70825;SDS011;58446;41.490;22.098;2022-12-18T15:07:07;38.37;;;19.67;;
70825;SDS011;58446;41.490;22.098;2022-12-18T15:09:40;30.25;;;17.63;;
70825;SDS011;58446;41.490;22.098;2022-12-18T15:12:19;32.53;;;19.50;;
70825;SDS011;58446;41.490;22.098;2022-12-18T15:14:53;33.65;;;18.98;;
70825;SDS011;58446;41.490;22.098;2022-12-18T15:17:20;36.33;;;20.70;;
70825;SDS011;58446;41.490;22.098;2022-12-18T15:19:48;45.30;;;24.17;;
70825;SDS011;58446;41.490;22.098;2022-12-18T15:24:53;35.08;;;22.30;;
70825;SDS011;58446;41.490;22.098;2022-12-18T15:27:24;39.30;;;22.63;;
70825;SDS011;58446;41.490;22.098;2022-12-18T15:30:00;31.52;;;21.05;;
70825;SDS011;58446;41.490;22.098;2022-12-18T15:32:41;34.70;;;20.98;;
70825;SDS011;58446;41.490;22.098;2022-12-18T15:37:36;29.60;;;20.10;;
70825;SDS011;58446;41.490;22.098;2022-12-18T15:40:05;29.60;;;18.30;;
70825;SDS011;58446;41.490;22.098;2022-12-18T15:42:32;28.70;;;18.10;;
70825;SDS011;58446;41.490;22.098;2022-12-18T15:45:17;27.38;;;17.23;;
70825;SDS011;58446;41.490;22.098;2022-12-18T15:47:43;24.17;;;14.75;;
70825;SDS011;58446;41.490;22.098;2022-12-18T15:50:09;26.13;;;14.90;;
70825;SDS011;58446;41.490;22.098;2022-12-18T15:52:39;22.48;;;13.20;;
70825;SDS011;58446;41.490;22.098;2022-12-18T15:55:11;20.10;;;11.98;;
70825;SDS011;58446;41.490;22.098;2022-12-18T15:57:57;20.08;;;11.57;;
70825;SDS011;58446;41.490;22.098;2022-12-18T16:00:22;20.60;;;12.40;;
70825;SDS011;58446;41.490;22.098;2022-12-18T16:02:48;20.88;;;12.70;;
70825;SDS011;58446;41.490;22.098;2022-12-18T16:05:15;21.20;;;11.80;;
70825;SDS011;58446;41.490;22.098;2022-12-18T16:07:42;21.67;;;12.15;;
70825;SDS011;58446;41.490;22.098;2022-12-18T16:10:08;21.75;;;12.07;;
70825;SDS011;58446;41.490;22.098;2022-12-18T16:12:35;20.27;;;12.30;;
70825;SDS011;58446;41.490;22.098;2022-12-18T16:15:01;20.60;;;12.82;;
70825;SDS011;58446;41.490;22.098;2022-12-18T16:17:27;21.27;;;14.10;;